Tim S. Dool — VGPY — position and weather

sailwx.info

Track history (hours):
 
Tides and Currents Weather Stations Pressure Air Temp Water Temp Dewpoint Dewpoint Depression Visibility Wind Speed Wind Dir Waves Ship Positions

Tim S. Dool

Last reported at 2016-Dec-30 05:29 UTC. Time now 2017-Feb-25 11:53 UTC.
Position N 43°12' W 079°12'.
Warning: this ship's position is 57 days out of date.

Length 223 m; draft 8 m.

Type: Cargo ship. MMSI: 316001696.

Date/timePositionNaut miles runAvg speedWind from/ knotsBaromVisibWave heightAir tempDewpointWater temp
2016-Dec-30 05:29N 43°12' W 079°12'2 1.7
2016-Dec-30 04:33N 43°13' W 079°13'  
2016-Dec-27 09:11N 45°14' W 074°13'6 8.4
2016-Dec-27 08:25N 45°13' W 074°04'6 7.5
2016-Dec-27 07:33N 45°17' W 073°56'2 1.9
2016-Dec-27 06:34N 45°19' W 073°55'1 1.1
2016-Dec-27 05:33N 45°20' W 073°55'5 4.8
2016-Dec-27 04:33N 45°23' W 073°49'7 7.3
2016-Dec-27 03:32N 45°24' W 073°39'4 3.4
2016-Dec-27 02:29N 45°24' W 073°34'2 1.6
2016-Dec-27 01:32N 45°25' W 073°32'  
2016-Dec-21 19:17N 45°29' W 073°31'1 1.5
2016-Dec-21 18:23N 45°27' W 073°30'1 0.8
2016-Dec-21 17:30N 45°27' W 073°30'1 0.9
2016-Dec-21 16:33N 45°26' W 073°30'3 2.9
2016-Dec-21 15:33N 45°24' W 073°34'1 0.6
2016-Dec-21 14:33N 45°24' W 073°35'1 0.7
2016-Dec-21 13:30N 45°24' W 073°36'1 1.6
2016-Dec-21 12:33N 45°24' W 073°38'3 3.2
2016-Dec-21 11:33N 45°25' W 073°42'7 7.0
2016-Dec-21 10:33N 45°21' W 073°51'4 3.8
2016-Dec-21 09:34N 45°19' W 073°55'1 0.8
2016-Dec-21 08:33N 45°18' W 073°56'1 1.4
2016-Dec-21 07:33N 45°17' W 073°57'13 1.6
2016-Dec-20 23:29N 45°14' W 074°15'  
Track history (hours):
 
Tides and Currents Weather Stations Pressure Air Temp Water Temp Dewpoint Dewpoint Depression Visibility Wind Speed Wind Dir Waves Ship Positions

Tim S. Dool

Last reported at 2016-Dec-30 05:29 UTC. Time now 2017-Feb-25 11:53 UTC.
Position N 43°12' W 079°12'.
Warning: this ship's position is 57 days out of date.

Length 223 m; draft 8 m.

Type: Cargo ship. MMSI: 316001696.

Date/timePositionNaut miles runAvg speedWind from/ knotsBaromVisibWave heightAir tempDewpointWater temp
2016-Dec-30 05:29N 43°12' W 079°12'2 1.7
2016-Dec-30 04:33N 43°13' W 079°13'  
2016-Dec-27 09:11N 45°14' W 074°13'6 8.4
2016-Dec-27 08:25N 45°13' W 074°04'6 7.5
2016-Dec-27 07:33N 45°17' W 073°56'2 1.9
2016-Dec-27 06:34N 45°19' W 073°55'1 1.1
2016-Dec-27 05:33N 45°20' W 073°55'5 4.8
2016-Dec-27 04:33N 45°23' W 073°49'7 7.3
2016-Dec-27 03:32N 45°24' W 073°39'4 3.4
2016-Dec-27 02:29N 45°24' W 073°34'2 1.6
2016-Dec-27 01:32N 45°25' W 073°32'  
2016-Dec-21 19:17N 45°29' W 073°31'1 1.5
2016-Dec-21 18:23N 45°27' W 073°30'1 0.8
2016-Dec-21 17:30N 45°27' W 073°30'1 0.9
2016-Dec-21 16:33N 45°26' W 073°30'3 2.9
2016-Dec-21 15:33N 45°24' W 073°34'1 0.6
2016-Dec-21 14:33N 45°24' W 073°35'1 0.7
2016-Dec-21 13:30N 45°24' W 073°36'1 1.6
2016-Dec-21 12:33N 45°24' W 073°38'3 3.2
2016-Dec-21 11:33N 45°25' W 073°42'7 7.0
2016-Dec-21 10:33N 45°21' W 073°51'4 3.8
2016-Dec-21 09:34N 45°19' W 073°55'1 0.8
2016-Dec-21 08:33N 45°18' W 073°56'1 1.4
2016-Dec-21 07:33N 45°17' W 073°57'13 1.6
2016-Dec-20 23:29N 45°14' W 074°15'  

Dump ship's entire track history